createdAt,value
2022-11-09T00:00:58.092Z,71.43
2022-11-09T00:03:27.649Z,71.70
2022-11-09T00:05:58.224Z,71.46
2022-11-09T00:08:27.774Z,71.63
2022-11-09T00:11:05.222Z,71.55
2022-11-09T00:13:35.166Z,71.75
2022-11-09T00:16:05.883Z,71.79
2022-11-09T00:18:38.244Z,71.59
2022-11-09T00:21:11.175Z,71.83
2022-11-09T00:23:40.770Z,71.64
2022-11-09T00:26:15.031Z,71.91
2022-11-09T00:28:44.814Z,71.96
2022-11-09T00:31:17.439Z,72.20
2022-11-09T00:33:51.073Z,71.92
2022-11-09T00:36:22.194Z,71.91
2022-11-09T00:38:53.375Z,72.01
2022-11-09T00:41:26.009Z,72.23
2022-11-09T00:43:55.943Z,72.28
2022-11-09T00:46:26.550Z,72.29
2022-11-09T00:48:57.199Z,72.52
2022-11-09T00:51:27.186Z,72.44
2022-11-09T00:53:58.560Z,72.89
2022-11-09T00:56:30.873Z,72.97
2022-11-09T00:59:00.417Z,72.78
2022-11-09T01:01:30.381Z,72.96
2022-11-09T01:04:00.367Z,73.20
2022-11-09T01:06:30.078Z,73.28
2022-11-09T01:09:00.748Z,73.53
2022-11-09T01:11:32.932Z,73.69
2022-11-09T01:14:03.247Z,73.74
2022-11-09T01:16:33.063Z,73.88
2022-11-09T01:19:02.855Z,74.10
2022-11-09T01:21:32.433Z,74.08
2022-11-09T01:24:03.290Z,74.16
2022-11-09T01:26:35.471Z,74.08
2022-11-09T01:29:05.039Z,74.34
2022-11-09T01:31:36.166Z,74.39
2022-11-09T01:34:05.800Z,74.34
2022-11-09T01:36:36.174Z,74.44
2022-11-09T01:39:05.744Z,74.50
2022-11-09T01:41:37.874Z,74.23
2022-11-09T01:44:09.901Z,74.38
2022-11-09T01:46:45.535Z,74.49
2022-11-09T01:49:18.694Z,74.43
2022-11-09T01:51:51.874Z,74.50
2022-11-09T01:54:23.804Z,74.56
2022-11-09T01:56:59.614Z,74.45
2022-11-09T01:59:32.340Z,74.20
2022-11-09T02:02:02.667Z,74.42
2022-11-09T02:04:36.785Z,74.57
2022-11-09T02:07:07.778Z,74.47
2022-11-09T02:09:42.138Z,74.69
2022-11-09T02:12:14.657Z,74.43
2022-11-09T02:14:44.404Z,74.29
2022-11-09T02:17:14.472Z,74.28
2022-11-09T02:19:44.228Z,74.19
2022-11-09T02:22:16.906Z,74.11
2022-11-09T02:24:46.439Z,74.17
2022-11-09T02:27:16.236Z,73.87
2022-11-09T02:29:47.698Z,74.13
2022-11-09T02:32:20.491Z,73.98
2022-11-09T02:34:50.624Z,74.15
2022-11-09T02:37:31.171Z,74.07
2022-11-09T02:40:01.956Z,74.16
2022-11-09T02:42:32.089Z,74.45
2022-11-09T02:45:02.532Z,74.33
2022-11-09T02:47:32.727Z,74.37
2022-11-09T02:50:02.320Z,74.31
2022-11-09T02:52:34.528Z,74.25
2022-11-09T02:55:04.818Z,74.25
2022-11-09T02:57:35.881Z,74.28
2022-11-09T03:00:06.443Z,74.26
2022-11-09T03:02:38.412Z,74.17
2022-11-09T03:05:09.571Z,74.05
2022-11-09T03:07:44.816Z,74.29
2022-11-09T03:10:15.328Z,74.13
2022-11-09T03:12:45.035Z,74.41
2022-11-09T03:15:17.897Z,74.70
2022-11-09T03:17:49.469Z,74.88
2022-11-09T03:20:21.323Z,75.04
2022-11-09T03:22:53.921Z,74.92
2022-11-09T03:25:23.586Z,74.78
2022-11-09T03:27:53.426Z,75.06
2022-11-09T03:30:23.126Z,75.11
2022-11-09T03:32:52.791Z,75.05
2022-11-09T03:35:22.499Z,75.23
2022-11-09T03:37:54.844Z,74.74
2022-11-09T03:40:25.079Z,75.01
2022-11-09T03:42:54.786Z,74.79
2022-11-09T03:45:24.895Z,74.82
2022-11-09T03:47:56.955Z,74.73
2022-11-09T03:50:26.607Z,74.57
2022-11-09T03:52:59.067Z,74.66
2022-11-09T03:55:28.786Z,74.16
2022-11-09T03:57:58.413Z,74.41
2022-11-09T04:00:28.531Z,74.29
2022-11-09T04:02:58.570Z,74.10
2022-11-09T04:05:28.804Z,74.14
2022-11-09T04:08:01.197Z,74.06
2022-11-09T04:10:30.786Z,74.17
2022-11-09T04:13:00.387Z,74.09
2022-11-09T04:15:29.996Z,74.11
2022-11-09T04:18:00.412Z,74.30
2022-11-09T04:20:31.603Z,74.15
2022-11-09T04:23:07.288Z,74.30
2022-11-09T04:25:38.820Z,74.41
2022-11-09T04:28:10.778Z,74.30
2022-11-09T04:30:40.681Z,74.03
2022-11-09T04:33:10.255Z,74.23
2022-11-09T04:35:39.854Z,74.24
2022-11-09T04:38:14.815Z,74.16
2022-11-09T04:40:44.979Z,74.10
2022-11-09T04:43:16.375Z,74.25
2022-11-09T04:45:47.409Z,74.65
2022-11-09T04:48:17.085Z,74.44
2022-11-09T04:50:46.655Z,74.22
2022-11-09T04:53:18.962Z,74.40
2022-11-09T04:55:48.505Z,74.20
2022-11-09T04:58:23.799Z,74.31
2022-11-09T05:00:54.539Z,74.26
2022-11-09T05:03:24.246Z,74.48
2022-11-09T05:05:53.970Z,74.27
2022-11-09T05:08:26.353Z,74.65
2022-11-09T05:10:59.411Z,74.67
2022-11-09T05:13:29.017Z,74.65
2022-11-09T05:15:58.583Z,74.87
2022-11-09T05:18:28.121Z,75.37
2022-11-09T05:21:01.505Z,75.38
2022-11-09T05:23:46.393Z,75.85
2022-11-09T05:26:16.167Z,76.01
2022-11-09T05:28:45.739Z,76.37
2022-11-09T05:31:15.301Z,76.27
2022-11-09T05:33:44.870Z,75.62
2022-11-09T05:36:14.426Z,75.65
2022-11-09T05:38:46.639Z,75.38
2022-11-09T05:41:16.469Z,75.30
2022-11-09T05:43:47.292Z,75.28
2022-11-09T05:46:17.932Z,75.73
2022-11-09T05:48:47.922Z,75.90
2022-11-09T05:51:18.556Z,76.30
2022-11-09T05:53:50.951Z,76.94
2022-11-09T05:56:20.562Z,77.05
2022-11-09T05:58:50.163Z,77.44
2022-11-09T06:01:21.456Z,78.06
2022-11-09T06:03:51.060Z,78.50
2022-11-09T06:06:20.635Z,78.89
2022-11-09T06:08:52.841Z,79.46
2022-11-09T06:11:24.347Z,80.36
2022-11-09T06:13:54.767Z,80.57
2022-11-09T06:16:24.366Z,80.73
2022-11-09T06:18:53.911Z,81.38
2022-11-09T06:21:23.466Z,81.50
2022-11-09T06:23:55.608Z,81.74
2022-11-09T06:26:25.196Z,81.92
2022-11-09T06:28:54.738Z,82.28
2022-11-09T06:31:24.427Z,82.35
2022-11-09T06:33:54.018Z,82.61
2022-11-09T06:36:24.088Z,82.92
2022-11-09T06:38:56.321Z,82.99
2022-11-09T06:41:25.907Z,83.29
2022-11-09T06:43:55.525Z,83.62
2022-11-09T06:46:25.157Z,83.79
2022-11-09T06:48:54.846Z,84.02
2022-11-09T06:51:24.441Z,84.11
2022-11-09T06:53:56.632Z,84.18
2022-11-09T06:56:26.214Z,84.46
2022-11-09T06:58:55.805Z,84.53
2022-11-09T07:01:30.081Z,84.80
2022-11-09T07:04:00.089Z,84.64
2022-11-09T07:06:29.781Z,84.75
2022-11-09T07:09:02.467Z,84.88
2022-11-09T07:11:32.077Z,84.78
2022-11-09T07:14:02.796Z,84.89
2022-11-09T07:16:32.573Z,85.19
2022-11-09T07:19:02.186Z,85.16
2022-11-09T07:21:31.775Z,85.30
2022-11-09T07:24:03.926Z,85.35
2022-11-09T07:26:33.502Z,84.99
2022-11-09T07:29:03.023Z,85.09
2022-11-09T07:31:32.590Z,84.95
2022-11-09T07:34:04.910Z,85.02
2022-11-09T07:36:36.691Z,85.04
2022-11-09T07:39:09.065Z,84.96
2022-11-09T07:41:38.643Z,84.91
2022-11-09T07:44:08.968Z,85.01
2022-11-09T07:46:39.129Z,84.85
2022-11-09T07:49:08.654Z,84.81
2022-11-09T07:51:38.367Z,84.95
2022-11-09T07:54:10.758Z,84.88
2022-11-09T07:56:41.097Z,84.96
2022-11-09T07:59:10.768Z,85.11
2022-11-09T08:01:40.386Z,85.29
2022-11-09T08:04:10.357Z,85.08
2022-11-09T08:06:40.094Z,85.18
2022-11-09T08:09:12.266Z,84.81
2022-11-09T08:11:41.838Z,84.16
2022-11-09T08:14:11.736Z,83.62
2022-11-09T08:16:41.414Z,83.26
2022-11-09T08:19:11.634Z,83.02
2022-11-09T08:21:41.254Z,82.90
2022-11-09T08:24:13.424Z,82.06
2022-11-09T08:26:43.022Z,81.42
2022-11-09T08:29:13.581Z,81.06
2022-11-09T08:31:43.147Z,80.26
2022-11-09T08:34:13.997Z,79.20
2022-11-09T08:36:43.602Z,78.65
2022-11-09T08:39:15.789Z,76.99
2022-11-09T08:41:45.352Z,75.48
2022-11-09T08:44:14.887Z,74.81
2022-11-09T08:46:44.450Z,74.01
2022-11-09T08:49:14.007Z,73.92
2022-11-09T08:51:43.563Z,72.77
2022-11-09T08:54:17.995Z,70.80
2022-11-09T08:56:47.633Z,69.69
2022-11-09T08:59:17.185Z,67.46
2022-11-09T09:01:46.792Z,65.96
2022-11-09T09:04:16.394Z,64.61
2022-11-09T09:06:46.107Z,63.32
2022-11-09T09:09:18.388Z,62.03
2022-11-09T09:11:47.975Z,61.43
2022-11-09T09:14:18.015Z,59.79
2022-11-09T09:16:47.621Z,58.64
2022-11-09T09:19:17.250Z,58.16
2022-11-09T09:21:46.830Z,57.43
2022-11-09T09:24:18.984Z,57.16
2022-11-09T09:26:48.599Z,56.25
2022-11-09T09:29:18.249Z,55.73
2022-11-09T09:31:47.845Z,54.70
2022-11-09T09:34:18.069Z,53.76
2022-11-09T09:36:48.527Z,52.94
2022-11-09T09:39:20.833Z,52.25
2022-11-09T09:41:55.931Z,51.81
2022-11-09T09:44:31.061Z,51.15
2022-11-09T09:47:09.203Z,51.12
2022-11-09T09:49:42.299Z,51.17
2022-11-09T09:52:19.875Z,52.37
2022-11-09T09:54:57.444Z,52.97
2022-11-09T09:57:31.844Z,53.81
2022-11-09T10:00:04.112Z,54.73
2022-11-09T10:02:41.532Z,56.13
2022-11-09T10:05:14.989Z,56.78
2022-11-09T10:07:48.687Z,57.22
2022-11-09T10:10:30.720Z,58.43
2022-11-09T10:13:15.621Z,58.80
2022-11-09T10:15:47.864Z,59.77
2022-11-09T10:18:28.368Z,60.28
2022-11-09T10:21:23.593Z,60.42
2022-11-09T10:24:06.004Z,61.02
2022-11-09T10:26:42.798Z,61.15
2022-11-09T10:29:22.995Z,60.74
2022-11-09T10:31:54.920Z,60.86
2022-11-09T10:34:28.330Z,61.29
2022-11-09T10:37:04.871Z,61.18
2022-11-09T10:39:42.633Z,61.43
2022-11-09T10:42:33.647Z,61.34
2022-11-09T10:45:30.055Z,61.56
2022-11-09T10:48:33.804Z,61.25
2022-11-09T10:51:36.723Z,60.56
2022-11-09T10:54:26.594Z,60.76
2022-11-09T10:57:18.600Z,60.84
2022-11-09T11:00:18.011Z,60.48
2022-11-09T11:03:14.185Z,60.04
2022-11-09T11:06:03.713Z,59.94
2022-11-09T11:08:52.739Z,60.02
2022-11-09T11:11:42.010Z,60.07
2022-11-09T11:14:33.219Z,59.94
2022-11-09T11:17:29.924Z,59.81
2022-11-09T11:20:30.259Z,60.01
2022-11-09T11:23:20.530Z,60.37
2022-11-09T11:26:28.418Z,60.38
2022-11-09T11:29:32.052Z,60.51
2022-11-09T11:32:21.771Z,60.28
2022-11-09T11:35:18.532Z,60.48
2022-11-09T11:38:24.497Z,60.50
2022-11-09T11:41:27.353Z,60.97
2022-11-09T11:44:24.287Z,60.88
2022-11-09T11:47:16.753Z,60.96
2022-11-09T11:50:27.636Z,60.66
2022-11-09T11:53:23.101Z,60.54
2022-11-09T11:56:21.713Z,60.28
2022-11-09T11:59:23.532Z,60.08
2022-11-09T12:02:29.673Z,60.07
2022-11-09T12:05:46.670Z,59.92
2022-11-09T12:08:43.147Z,59.49
2022-11-09T12:11:40.919Z,59.22
2022-11-09T12:14:37.879Z,59.20
2022-11-09T12:17:32.099Z,59.08
2022-11-09T12:20:38.665Z,58.99
2022-11-09T12:23:40.915Z,58.73
2022-11-09T12:26:37.261Z,58.13
2022-11-09T12:29:28.744Z,58.43
2022-11-09T12:32:23.583Z,58.25
2022-11-09T12:35:33.374Z,57.79
2022-11-09T12:38:24.618Z,57.45
2022-11-09T12:41:17.263Z,57.05
2022-11-09T12:44:07.523Z,57.31
2022-11-09T12:47:00.904Z,56.83
2022-11-09T12:49:49.858Z,56.68
2022-11-09T12:52:40.919Z,56.04
2022-11-09T12:55:33.914Z,55.34
2022-11-09T12:58:24.909Z,55.81
2022-11-09T13:01:15.306Z,55.86
2022-11-09T13:04:05.572Z,55.84
2022-11-09T13:07:19.415Z,55.98
2022-11-09T13:10:27.270Z,55.54
2022-11-09T13:13:24.151Z,55.52
2022-11-09T13:16:15.053Z,55.42
2022-11-09T13:19:03.379Z,55.54
2022-11-09T13:21:51.651Z,55.67
2022-11-09T13:24:59.995Z,55.33
2022-11-09T13:27:51.058Z,55.33
2022-11-09T13:30:42.089Z,55.50
2022-11-09T13:33:30.643Z,55.62
2022-11-09T13:36:21.186Z,55.69
2022-11-09T13:39:31.230Z,55.74
2022-11-09T13:42:32.585Z,56.16
2022-11-09T13:45:36.796Z,56.10
2022-11-09T13:48:34.725Z,55.81
2022-11-09T13:51:25.976Z,55.51
2022-11-09T13:54:32.316Z,55.80
2022-11-09T13:57:20.385Z,56.02
2022-11-09T14:00:10.597Z,56.05
2022-11-09T14:03:03.124Z,55.93
2022-11-09T14:05:53.562Z,56.24
2022-11-09T14:08:43.906Z,56.19
2022-11-09T14:11:51.629Z,56.35
2022-11-09T14:14:57.421Z,56.66
2022-11-09T14:17:54.263Z,56.94
2022-11-09T14:20:53.156Z,56.90
2022-11-09T14:23:41.037Z,57.05
2022-11-09T14:26:29.060Z,57.03
2022-11-09T14:29:24.117Z,57.04
2022-11-09T14:32:28.551Z,56.95
2022-11-09T14:35:25.867Z,57.27
2022-11-09T14:38:23.477Z,57.46
2022-11-09T14:41:22.809Z,57.90
2022-11-09T14:44:16.730Z,57.90
2022-11-09T14:47:06.245Z,58.05
2022-11-09T14:49:54.406Z,58.25
2022-11-09T14:52:43.290Z,58.57
2022-11-09T14:55:42.275Z,58.56
2022-11-09T14:58:31.317Z,58.77
2022-11-09T15:01:24.250Z,58.96
2022-11-09T15:04:16.939Z,58.91
2022-11-09T15:07:07.022Z,59.21
2022-11-09T15:09:58.646Z,59.50
2022-11-09T15:12:54.979Z,59.78
2022-11-09T15:15:43.394Z,60.06
2022-11-09T15:18:34.627Z,60.26
2022-11-09T15:21:36.285Z,60.76
2022-11-09T15:24:26.536Z,60.89
2022-11-09T15:27:31.733Z,61.30
2022-11-09T15:30:38.950Z,61.83
2022-11-09T15:33:32.353Z,61.59
2022-11-09T15:36:40.902Z,61.93
2022-11-09T15:39:33.220Z,62.20
2022-11-09T15:42:21.265Z,62.27
2022-11-09T15:45:11.295Z,62.57
2022-11-09T15:48:01.949Z,62.68
2022-11-09T15:50:50.196Z,63.07
2022-11-09T15:53:38.521Z,63.01
2022-11-09T15:56:27.357Z,62.96
2022-11-09T15:59:21.499Z,63.17
2022-11-09T16:02:09.743Z,63.35
2022-11-09T16:05:00.486Z,63.71
2022-11-09T16:07:52.394Z,63.91
2022-11-09T16:10:41.195Z,63.93
2022-11-09T16:13:29.596Z,63.94
2022-11-09T16:16:18.373Z,64.12
2022-11-09T16:19:06.610Z,64.38
2022-11-09T16:21:58.541Z,64.47
2022-11-09T16:24:47.054Z,64.19
2022-11-09T16:27:49.550Z,64.54
2022-11-09T16:30:41.627Z,64.67
2022-11-09T16:33:33.853Z,64.63
2022-11-09T16:36:23.858Z,64.93
2022-11-09T16:39:17.216Z,65.14
2022-11-09T16:42:09.374Z,65.62
2022-11-09T16:45:00.377Z,65.74
2022-11-09T16:47:50.253Z,65.90
2022-11-09T16:50:38.295Z,66.39
2022-11-09T16:53:27.420Z,66.65
2022-11-09T16:56:18.077Z,67.00
2022-11-09T16:59:06.115Z,67.34
2022-11-09T17:01:54.781Z,67.73
2022-11-09T17:04:42.984Z,67.99
2022-11-09T17:07:31.920Z,68.03
2022-11-09T17:10:20.886Z,68.67
2022-11-09T17:13:11.490Z,69.04
2022-11-09T17:15:59.804Z,68.97
2022-11-09T17:18:47.956Z,68.97
2022-11-09T17:21:36.026Z,69.35
2022-11-09T17:24:23.993Z,69.27
2022-11-09T17:27:12.378Z,69.39
2022-11-09T17:30:02.934Z,69.33
2022-11-09T17:32:51.128Z,69.35
2022-11-09T17:35:40.151Z,69.37
2022-11-09T17:38:28.455Z,69.39
2022-11-09T17:41:18.417Z,69.61
2022-11-09T17:44:06.941Z,69.61
2022-11-09T17:46:57.710Z,69.54
2022-11-09T17:49:45.706Z,69.62
2022-11-09T17:52:33.847Z,69.46
2022-11-09T17:55:22.035Z,69.59
2022-11-09T17:58:11.852Z,69.58
2022-11-09T18:00:59.898Z,69.35
2022-11-09T18:03:51.232Z,69.54
2022-11-09T18:06:39.703Z,69.42
2022-11-09T18:09:40.893Z,69.59
2022-11-09T18:12:30.057Z,69.58
2022-11-09T18:15:18.274Z,69.60
2022-11-09T18:18:07.000Z,69.56
2022-11-09T18:20:57.929Z,69.51
2022-11-09T18:23:46.773Z,69.71
2022-11-09T18:26:35.016Z,69.80
2022-11-09T18:29:23.759Z,70.18
2022-11-09T18:32:11.975Z,70.57
2022-11-09T18:34:59.965Z,70.95
2022-11-09T18:37:50.513Z,71.35
2022-11-09T18:40:38.872Z,71.70
2022-11-09T18:43:26.910Z,71.85
2022-11-09T18:46:16.855Z,72.19
2022-11-09T18:49:08.950Z,72.54
2022-11-09T18:51:59.940Z,72.80
2022-11-09T18:54:50.885Z,73.01
2022-11-09T18:57:39.156Z,72.92
2022-11-09T19:00:27.030Z,73.10
2022-11-09T19:03:17.391Z,73.17
2022-11-09T19:06:08.273Z,73.62
2022-11-09T19:09:09.050Z,73.54
2022-11-09T19:12:00.939Z,73.58
2022-11-09T19:14:49.462Z,73.51
2022-11-09T19:17:37.823Z,73.34
2022-11-09T19:20:26.079Z,73.25
2022-11-09T19:23:14.103Z,73.25
2022-11-09T19:26:03.807Z,73.13
2022-11-09T19:28:54.588Z,73.35
2022-11-09T19:31:43.357Z,73.22
2022-11-09T19:34:31.701Z,73.12
2022-11-09T19:37:19.595Z,73.13
2022-11-09T19:40:09.420Z,73.39
2022-11-09T19:42:57.725Z,73.56
2022-11-09T19:45:48.315Z,73.63
2022-11-09T19:48:36.565Z,73.62
2022-11-09T19:51:24.873Z,73.76
2022-11-09T19:54:15.269Z,73.86
2022-11-09T19:57:03.265Z,73.96
2022-11-09T19:59:51.254Z,74.20
2022-11-09T20:02:41.694Z,74.33
2022-11-09T20:05:31.140Z,74.39
2022-11-09T20:08:19.717Z,74.40
2022-11-09T20:11:09.121Z,74.40
2022-11-09T20:13:57.415Z,74.65
2022-11-09T20:16:47.906Z,74.55
2022-11-09T20:19:38.442Z,74.86
2022-11-09T20:22:26.394Z,74.88
2022-11-09T20:25:14.387Z,74.71
2022-11-09T20:28:02.457Z,74.83
2022-11-09T20:30:50.343Z,74.79
2022-11-09T20:33:38.383Z,74.90
2022-11-09T20:36:29.054Z,74.98
2022-11-09T20:39:18.170Z,74.91
2022-11-09T20:42:07.288Z,74.86
2022-11-09T20:44:56.647Z,74.95
2022-11-09T20:48:05.045Z,74.82
2022-11-09T20:50:52.919Z,74.71
2022-11-09T20:53:43.511Z,74.60
2022-11-09T20:56:31.603Z,74.55
2022-11-09T20:59:19.693Z,74.52
2022-11-09T21:02:08.086Z,74.61
2022-11-09T21:04:55.988Z,74.78
2022-11-09T21:07:44.132Z,75.13
2022-11-09T21:10:34.916Z,75.48
2022-11-09T21:13:23.238Z,75.56
2022-11-09T21:16:13.162Z,75.81
2022-11-09T21:19:01.099Z,75.94
2022-11-09T21:21:49.257Z,76.25
2022-11-09T21:24:50.198Z,76.27
2022-11-09T21:27:53.467Z,76.54
2022-11-09T21:30:41.485Z,76.48
2022-11-09T21:33:29.519Z,76.54
2022-11-09T21:36:18.210Z,76.66
2022-11-09T21:39:06.548Z,77.05
2022-11-09T21:41:54.762Z,77.27
2022-11-09T21:44:45.540Z,77.36
2022-11-09T21:47:33.415Z,77.51
2022-11-09T21:50:21.612Z,77.56
2022-11-09T21:53:09.759Z,77.74
2022-11-09T21:55:57.714Z,77.82
2022-11-09T21:58:46.067Z,77.74
2022-11-09T22:01:37.185Z,78.05
2022-11-09T22:04:25.565Z,77.87
2022-11-09T22:07:13.947Z,77.97
2022-11-09T22:10:11.169Z,78.07
2022-11-09T22:13:12.564Z,78.11
2022-11-09T22:16:10.216Z,78.21
2022-11-09T22:19:14.072Z,78.43
2022-11-09T22:22:02.208Z,78.66
2022-11-09T22:24:50.354Z,78.88
2022-11-09T22:27:38.612Z,79.18
2022-11-09T22:30:26.859Z,79.32
2022-11-09T22:33:15.641Z,79.49
2022-11-09T22:36:08.165Z,79.61
2022-11-09T22:38:56.382Z,79.62
2022-11-09T22:41:47.422Z,79.74
2022-11-09T22:44:35.440Z,79.73
2022-11-09T22:47:23.797Z,79.89
2022-11-09T22:50:12.522Z,79.74
2022-11-09T22:53:04.103Z,79.69
2022-11-09T22:55:54.984Z,79.67
2022-11-09T22:58:44.360Z,79.58
2022-11-09T23:01:32.723Z,79.57
2022-11-09T23:04:21.105Z,79.36
2022-11-09T23:07:09.503Z,79.36
2022-11-09T23:10:00.479Z,79.12
2022-11-09T23:12:48.502Z,78.88
2022-11-09T23:15:36.427Z,78.94
2022-11-09T23:18:36.964Z,78.84
2022-11-09T23:21:27.327Z,78.81
2022-11-09T23:24:37.330Z,78.60
2022-11-09T23:27:27.987Z,78.61
2022-11-09T23:30:16.418Z,78.34
2022-11-09T23:33:05.160Z,78.40
2022-11-09T23:35:53.059Z,78.66
2022-11-09T23:38:42.066Z,78.80
2022-11-09T23:41:29.960Z,79.07
2022-11-09T23:44:20.532Z,79.40
2022-11-09T23:47:08.508Z,79.41
2022-11-09T23:49:56.502Z,79.36
2022-11-09T23:52:44.748Z,79.24
2022-11-09T23:55:33.032Z,78.99
2022-11-09T23:58:21.021Z,78.65
